Time;durP1;ratioP1;P1;durP2;ratioP2;P2;SDS_P1;SDS_P2;PMS_P1;PMS_P2;Temp;Humidity;BMP_temperature;BMP_pressure;BME280_temperature;BME280_humidity;BME280_pressure;Samples;Min_cycle;Max_cycle;Signal;HPM_P1;HPM_P2
2022/12/05 00:12:02;;;;;;;35.50;13.85;;;;;;;11.03;46.97;101428.34;5161820;23;20222;-62
2022/12/05 00:14:28;;;;;;;33.33;13.50;;;;;;;11.05;46.41;101423.72;4846600;29;20029;-62
2022/12/05 00:16:53;;;;;;;37.70;13.60;;;;;;;11.05;46.14;101431.75;4881809;29;20510;-62
2022/12/05 00:19:18;;;;;;;30.23;11.95;;;;;;;11.04;46.62;101430.06;4881799;29;20037;-62
2022/12/05 00:21:44;;;;;;;36.00;12.32;;;;;;;11.06;46.48;101432.63;4872899;29;20041;-63
2022/12/05 00:24:12;;;;;;;36.47;13.38;;;;;;;11.03;46.41;101422.97;4877615;29;20041;-62
2022/12/05 00:26:37;;;;;;;24.42;10.93;;;;;;;11.04;46.44;101427.38;4860980;29;20025;-62
2022/12/05 00:29:03;;;;;;;32.40;10.70;;;;;;;11.03;46.36;101433.69;4843129;29;20064;-62
2022/12/05 00:31:29;;;;;;;35.17;12.77;;;;;;;11.03;47.19;101428.34;4879488;29;20058;-62
2022/12/05 00:33:59;;;;;;;29.40;12.63;;;;;;;11.04;46.53;101432.75;4882059;29;20124;-62
2022/12/05 00:36:26;;;;;;;30.60;11.40;;;;;;;11.05;47.26;101430.94;4865472;29;20064;-62
2022/12/05 00:38:52;;;;;;;35.78;12.98;;;;;;;11.03;46.04;101420.31;4880313;29;20041;-62
2022/12/05 00:41:22;;;;;;;31.38;12.18;;;;;;;11.05;46.27;101429.06;4882826;29;20025;-62
2022/12/05 00:43:49;;;;;;;34.42;11.65;;;;;;;11.08;46.72;101436.88;4881126;29;20446;-62
2022/12/05 00:46:17;;;;;;;32.35;11.48;;;;;;;11.08;47.02;101431.53;4866730;29;20037;-63
2022/12/05 00:48:43;;;;;;;29.92;11.77;;;;;;;11.07;46.32;101427.16;4883083;29;20040;-62
2022/12/05 00:51:21;;;;;;;28.58;11.52;;;;;;;11.09;46.61;101438.59;4865767;29;20499;-63
2022/12/05 00:53:47;;;;;;;37.17;13.05;;;;;;;11.10;46.66;101440.31;4880404;29;20032;-62
2022/12/05 00:56:17;;;;;;;27.75;12.25;;;;;;;11.10;46.92;101440.31;4881507;29;20201;-62
2022/12/05 00:58:43;;;;;;;31.58;13.02;;;;;;;11.09;46.38;101443.09;4880996;29;20041;-63
2022/12/05 01:01:16;;;;;;;36.05;11.98;;;;;;;11.13;46.91;101446.41;4883014;29;20044;-62
2022/12/05 01:03:42;;;;;;;;;;;;;;;11.12;46.73;101453.59;4879901;29;20053;-63
2022/12/05 01:06:07;;;;;;;38.00;12.23;;;;;;;11.08;46.68;101444.94;4879532;29;20325;-63
2022/12/05 01:08:34;;;;;;;28.13;12.10;;;;;;;11.09;47.15;101438.59;4879959;29;20035;-63
2022/12/05 01:11:00;;;;;;;26.92;11.63;;;;;;;11.12;47.24;101437.50;4882006;29;20097;-62
2022/12/05 01:13:26;;;;;;;31.63;11.15;;;;;;;11.10;47.40;101432.28;4890257;29;20037;-63
2022/12/05 01:15:52;;;;;;;24.73;10.80;;;;;;;11.12;47.03;101437.50;4860349;29;20044;-63
2022/12/05 01:18:18;;;;;;;25.40;11.10;;;;;;;11.14;46.44;101437.41;4875321;29;20032;-62
2022/12/05 01:20:45;;;;;;;31.23;11.20;;;;;;;11.16;47.02;101436.31;4891003;29;20139;-62
2022/12/05 01:23:10;;;;;;;27.77;10.85;;;;;;;11.15;47.34;101431.06;4890429;29;20036;-63
2022/12/05 01:25:40;;;;;;;35.45;12.40;;;;;;;11.15;47.20;101431.06;4858447;29;20039;-62
2022/12/05 01:28:06;;;;;;;27.45;11.88;;;;;;;11.18;46.93;101437.03;4874036;29;20119;-62
2022/12/05 01:30:32;;;;;;;33.22;12.18;;;;;;;11.19;47.02;101437.91;4890752;29;20063;-62
2022/12/05 01:32:58;;;;;;;24.25;9.63;;;;;;;11.20;46.52;101431.53;4874372;29;20028;-62
2022/12/05 01:35:23;;;;;;;37.40;12.32;;;;;;;11.21;46.70;101441.31;4880263;29;20032;-62
2022/12/05 01:37:50;;;;;;;29.67;11.57;;;;;;;11.21;46.96;101435.94;4899124;29;20128;-62
2022/12/05 01:40:15;;;;;;;30.08;11.85;;;;;;;11.22;47.03;101449.25;4898924;29;20049;-62
2022/12/05 01:42:41;;;;;;;21.83;9.98;;;;;;;11.19;46.38;101443.25;4899182;29;20043;-62
2022/12/05 01:45:15;;;;;;;25.25;10.70;;;;;;;11.21;47.11;101447.53;4899986;29;20039;-63
2022/12/05 01:47:40;;;;;;;23.10;9.98;;;;;;;11.23;46.99;101455.44;4883084;29;20483;-62
2022/12/05 01:50:07;;;;;;;30.58;11.20;;;;;;;11.25;46.85;101442.81;4900108;29;20040;-62
2022/12/05 01:52:32;;;;;;;37.60;11.82;;;;;;;11.20;47.35;101435.09;4868577;29;20041;-62
2022/12/05 01:55:13;;;;;;;28.17;9.88;;;;;;;11.19;46.84;101430.72;4899905;29;20041;-62
2022/12/05 01:57:39;;;;;;;34.97;11.32;;;;;;;11.20;47.16;101434.22;4883003;29;20045;-63
2022/12/05 02:00:14;;;;;;;28.38;10.50;;;;;;;11.21;47.33;101430.59;4898519;29;20047;-62
2022/12/05 02:03:01;;;;;;;23.58;10.43;;;;;;;11.19;46.58;101444.13;4883144;29;20226;-62
2022/12/05 02:05:32;;;;;;;28.20;11.38;;;;;;;11.20;46.80;101439.59;4883580;29;20056;-62
2022/12/05 02:08:01;;;;;;;33.25;11.32;;;;;;;11.21;46.50;101442.19;4883426;29;20071;-62
2022/12/05 02:10:27;;;;;;;28.40;12.50;;;;;;;11.20;47.01;101439.59;4900412;29;20509;-62
2022/12/05 02:12:53;;;;;;;25.00;9.63;;;;;;;11.18;46.28;101436.19;4868425;29;20045;-62
2022/12/05 02:15:51;;;;;;;35.13;13.15;;;;;;;11.21;46.80;101446.69;4898223;29;20040;-62
2022/12/05 02:18:28;;;;;;;32.35;12.07;;;;;;;11.19;47.00;101443.25;4894424;29;20043;-62
2022/12/05 02:21:26;;;;;;;30.40;11.60;;;;;;;11.18;46.75;101450.44;4898809;29;20037;-62
2022/12/05 02:24:13;;;;;;;24.10;10.45;;;;;;;11.17;46.86;101450.59;4899150;29;20032;-63
2022/12/05 02:27:10;;;;;;;31.77;11.10;;;;;;;11.10;48.06;101440.31;4898598;29;20541;-63
2022/12/05 02:29:47;;;;;;;25.92;10.50;;;;;;;11.14;47.14;101456.19;4899128;29;20044;-63
2022/12/05 02:32:18;;;;;;;23.33;9.93;;;;;;;11.14;47.33;101451.66;4899592;29;20040;-63
2022/12/05 02:34:57;;;;;;;24.92;11.23;;;;;;;11.13;46.73;101449.09;4898853;29;20048;-63
2022/12/05 02:37:33;;;;;;;30.35;10.02;;;;;;;11.10;46.78;101445.69;4881310;29;20123;-63
2022/12/05 02:40:13;;;;;;;31.30;10.63;;;;;;;11.17;46.72;101450.59;4897842;29;20040;-63
2022/12/05 02:42:52;;;;;;;30.23;10.75;;;;;;;11.17;47.52;101455.94;4882334;29;20118;-63
2022/12/05 02:45:20;;;;;;;32.67;11.88;;;;;;;11.18;47.16;101446.91;4882018;29;20123;-62
2022/12/05 02:47:49;;;;;;;34.97;11.50;;;;;;;11.15;46.56;101444.47;4898383;29;20029;-63
2022/12/05 02:50:18;;;;;;;27.92;10.88;;;;;;;11.19;47.04;101451.31;4882697;29;20128;-63
2022/12/05 02:52:46;;;;;;;32.78;12.23;;;;;;;11.16;46.94;101448.88;4897961;29;20497;-63
2022/12/05 02:55:13;;;;;;;26.10;10.65;;;;;;;11.20;46.71;101455.69;4882364;29;20037;-63
2022/12/05 02:57:42;;;;;;;31.13;11.35;;;;;;;11.18;46.84;101453.13;4882493;29;20040;-63
2022/12/05 03:00:08;;;;;;;22.08;9.45;;;;;;;11.20;47.21;101451.19;4882177;29;20033;-63
2022/12/05 03:02:33;;;;;;;28.48;9.82;;;;;;;11.17;46.64;101445.22;4898639;29;20036;-63
2022/12/05 03:05:18;;;;;;;29.08;10.00;;;;;;;11.21;46.69;101457.41;4882564;29;20104;-63
2022/12/05 03:07:46;;;;;;;33.90;11.70;;;;;;;11.19;47.20;101448.63;4897974;29;20413;-63
2022/12/05 03:10:12;;;;;;;34.92;12.45;;;;;;;11.20;47.20;101456.53;4882689;29;20051;-63
2022/12/05 03:12:43;;;;;;;32.60;11.85;;;;;;;11.21;46.88;101457.41;4897480;29;20045;-63
2022/12/05 03:15:23;;;;;;;35.63;12.13;;;;;;;11.16;47.22;101449.72;4881652;29;20036;-63
2022/12/05 03:18:16;;;;;;;30.25;11.18;;;;;;;11.22;47.44;101459.13;4897429;29;20478;-63
2022/12/05 03:20:46;;;;;;;32.38;11.90;;;;;;;11.21;46.69;101454.72;4895733;29;20041;-63
2022/12/05 03:23:14;;;;;;;37.90;13.18;;;;;;;11.19;46.88;101451.31;4898479;29;20104;-64
2022/12/05 03:26:13;;;;;;;34.20;13.18;;;;;;;11.16;47.09;101448.88;4898654;29;20039;-63
2022/12/05 03:29:17;;;;;;;37.05;12.77;;;;;;;11.18;47.61;101457.63;4892223;29;20037;-63
2022/12/05 03:32:04;;;;;;;25.90;11.60;;;;;;;11.16;47.09;101454.22;4880110;29;20566;-63
2022/12/05 03:34:42;;;;;;;40.65;13.30;;;;;;;11.14;47.18;101461.53;4897110;29;20037;-63
2022/12/05 03:37:13;;;;;;;29.52;10.73;;;;;;;11.10;47.52;101459.09;4899187;29;20044;-63
2022/12/05 03:39:44;;;;;;;34.20;12.00;;;;;;;11.07;47.49;101456.63;4881619;29;20028;-63
2022/12/05 03:42:13;;;;;;;38.20;12.52;;;;;;;11.06;47.00;101457.59;4897721;29;20098;-63
2022/12/05 03:44:44;;;;;;;32.42;12.18;;;;;;;11.02;47.54;101453.47;4866430;29;20036;-63
2022/12/05 03:47:38;;;;;;;33.30;11.90;;;;;;;11.04;47.58;101456.88;4898232;29;20045;-63
2022/12/05 03:50:12;;;;;;;35.65;12.52;;;;;;;11.03;46.95;101455.16;4880836;29;20048;-63
2022/12/05 03:52:47;;;;;;;31.92;13.88;;;;;;;11.01;47.33;101454.41;4881907;29;20033;-62
2022/12/05 03:55:13;;;;;;;32.35;12.50;;;;;;;11.00;47.16;101468.78;4882105;29;20043;-63
2022/12/05 03:57:47;;;;;;;40.22;14.38;;;;;;;11.00;47.46;101476.81;4881347;29;20040;-63
2022/12/05 04:00:18;;;;;;;32.47;12.63;;;;;;;10.99;47.71;101464.41;4882181;29;20033;-63
2022/12/05 04:03:03;;;;;;;32.97;12.63;;;;;;;10.99;47.63;101468.91;4896726;29;20031;-62
2022/12/05 04:05:39;;;;;;;29.30;12.20;;;;;;;10.95;47.88;101468.28;4881801;29;20043;-63
2022/12/05 04:08:08;;;;;;;38.70;12.68;;;;;;;10.94;48.05;101469.25;4896709;29;20052;-62
2022/12/05 04:10:48;;;;;;;35.65;12.73;;;;;;;10.95;47.51;101473.66;4896801;29;20093;-62
2022/12/05 04:13:53;;;;;;;38.88;13.48;;;;;;;10.92;47.76;101468.50;4883310;29;20045;-63
2022/12/05 04:19:17;;;;;;;35.08;13.95;;;;;;;10.89;47.40;101474.09;4896873;29;20048;-63
2022/12/05 04:21:47;;;;;;;36.65;13.25;;;;;;;10.85;47.27;101469.97;4896736;29;20084;-64
2022/12/05 04:27:23;;;;;;;39.55;12.88;;;;;;;10.81;47.60;101479.19;4896941;29;20040;-63
2022/12/05 04:30:09;;;;;;;37.35;13.63;;;;;;;10.79;48.61;101483.81;4897934;29;20104;-63
2022/12/05 04:32:44;;;;;;;34.15;12.32;;;;;;;10.74;47.79;101477.94;4896845;29;20032;-63
2022/12/05 04:35:23;;;;;;;37.17;12.95;;;;;;;10.73;47.60;101484.25;4896978;29;20051;-63
2022/12/05 04:37:51;;;;;;;35.65;11.20;;;;;;;10.75;48.20;101487.69;4896486;29;20047;-63
2022/12/05 04:40:20;;;;;;;30.55;12.13;;;;;;;10.71;48.18;101493.38;4896499;29;20123;-63
2022/12/05 04:42:47;;;;;;;36.85;12.88;;;;;;;10.73;47.77;101494.13;4896315;29;20566;-62
2022/12/05 04:45:14;;;;;;;38.25;12.55;;;;;;;10.71;48.32;101496.94;4880873;29;20037;-62
2022/12/05 04:47:45;;;;;;;36.75;13.65;;;;;;;10.72;47.97;101503.97;4896613;29;20394;-63
2022/12/05 04:50:11;;;;;;;37.60;13.20;;;;;;;10.71;48.04;101502.28;4896592;29;20031;-63
2022/12/05 04:52:37;;;;;;;29.92;11.32;;;;;;;10.71;48.04;101502.28;4896147;29;20418;-63
2022/12/05 04:55:08;;;;;;;32.55;12.73;;;;;;;10.71;47.92;101493.38;4880689;29;20040;-63
2022/12/05 04:57:59;;;;;;;32.80;11.60;;;;;;;10.71;48.07;101496.94;4881236;29;20045;-63
2022/12/05 05:00:26;;;;;;;32.30;11.70;;;;;;;10.68;47.67;101497.16;4896572;29;20056;-63
2022/12/05 05:03:18;;;;;;;42.47;15.18;;;;;;;10.66;48.59;101504.47;4900583;29;20121;-63
2022/12/05 05:05:47;;;;;;;30.30;10.90;;;;;;;10.60;48.24;101496.88;4897090;29;20074;-63
2022/12/05 05:08:18;;;;;;;33.58;12.38;;;;;;;10.61;48.15;101498.56;4901255;29;20036;-63
2022/12/05 05:10:51;;;;;;;35.55;12.50;;;;;;;10.60;48.34;101504.03;4900749;29;20462;-63
2022/12/05 05:13:17;;;;;;;32.15;11.57;;;;;;;10.57;48.19;101499.78;4871585;29;20416;-63
2022/12/05 05:15:42;;;;;;;29.88;13.80;;;;;;;10.56;48.49;101511.44;4899837;29;20051;-63
2022/12/05 05:18:08;;;;;;;25.65;11.85;;;;;;;10.56;48.21;101508.75;4899878;29;20557;-62
2022/12/05 05:20:34;;;;;;;30.27;11.70;;;;;;;10.51;48.55;101505.56;4899933;29;20406;-61
2022/12/05 05:22:59;;;;;;;32.72;11.38;;;;;;;10.50;48.22;101503.84;4900668;29;20075;-61
2022/12/05 05:25:25;;;;;;;35.45;12.80;;;;;;;10.50;48.03;101494.00;4899366;29;20064;-61
2022/12/05 05:27:53;;;;;;;38.17;11.88;;;;;;;10.49;48.19;101502.16;4902264;29;20459;-61
2022/12/05 05:30:19;;;;;;;25.25;11.38;;;;;;;10.47;48.71;101499.56;4886302;29;20426;-61
2022/12/05 05:32:45;;;;;;;34.30;12.80;;;;;;;10.49;47.57;101512.88;4883937;29;20478;-61
2022/12/05 05:35:11;;;;;;;32.50;12.80;;;;;;;10.49;48.12;101518.22;4899442;29;20039;-61
2022/12/05 05:37:37;;;;;;;36.58;12.68;;;;;;;10.45;48.13;101512.22;4883288;29;20426;-61
2022/12/05 05:40:03;;;;;;;29.63;12.63;;;;;;;10.46;48.22;101521.97;4883862;29;20056;-61
2022/12/05 05:42:29;;;;;;;37.65;13.35;;;;;;;10.47;48.58;101517.47;4901823;29;20129;-61
2022/12/05 05:44:54;;;;;;;40.42;12.60;;;;;;;10.44;48.48;101512.34;4883404;29;20129;-62
2022/12/05 05:47:19;;;;;;;32.25;13.43;;;;;;;10.45;48.53;101516.72;4868306;29;20036;-62
2022/12/05 05:49:45;;;;;;;36.63;12.40;;;;;;;10.43;48.67;101518.66;4867792;29;20045;-62
2022/12/05 05:52:10;;;;;;;34.78;11.70;;;;;;;10.40;48.23;101518.88;4899828;29;20040;-62
2022/12/05 05:54:35;;;;;;;30.45;12.18;;;;;;;10.37;48.37;101525.31;4901271;29;20127;-63
2022/12/05 05:57:01;;;;;;;43.33;12.90;;;;;;;10.36;48.22;101522.75;4883762;29;20036;-62
2022/12/05 05:59:26;;;;;;;26.67;11.75;;;;;;;10.35;48.58;101532.63;4901501;29;20068;-62
2022/12/05 06:01:51;;;;;;;29.70;12.10;;;;;;;10.32;48.28;101531.97;4899472;29;20450;-62
2022/12/05 06:04:17;;;;;;;37.45;13.18;;;;;;;10.26;48.24;101527.91;4898814;29;20123;-63
2022/12/05 06:06:42;;;;;;;36.53;12.63;;;;;;;10.22;48.52;101530.91;4899041;29;20036;-63
2022/12/05 06:09:08;;;;;;;31.40;12.48;;;;;;;10.21;48.39;101531.88;4898962;29;20036;-63
2022/12/05 06:11:33;;;;;;;26.23;10.57;;;;;;;10.16;48.72;101526.84;4898603;29;20041;-64
2022/12/05 06:14:01;;;;;;;32.00;12.35;;;;;;;10.12;47.68;101530.69;4899467;29;20053;-64
2022/12/05 06:16:28;;;;;;;31.83;11.15;;;;;;;10.09;48.32;101530.91;4898350;29;20051;-64
2022/12/05 06:18:54;;;;;;;33.70;12.02;;;;;;;10.06;48.51;101536.47;4899166;29;20043;-63
2022/12/05 06:21:20;;;;;;;23.33;10.73;;;;;;;10.04;48.37;101532.19;4898452;29;20116;-63
2022/12/05 06:23:45;;;;;;;27.17;11.55;;;;;;;9.95;48.89;101526.53;4898299;29;20033;-64
2022/12/05 06:26:14;;;;;;;29.27;12.27;;;;;;;9.97;48.51;101536.28;4898564;29;20630;-64
2022/12/05 06:28:40;;;;;;;33.58;12.85;;;;;;;9.93;48.80;101541.00;4898150;29;20080;-64
2022/12/05 06:31:17;;;;;;;30.13;11.65;;;;;;;9.90;48.67;101536.72;4897855;29;20084;-64
2022/12/05 06:33:42;;;;;;;39.45;12.82;;;;;;;9.84;48.39;101539.81;4882385;29;20062;-65
2022/12/05 06:36:14;;;;;;;34.35;12.07;;;;;;;9.83;48.26;101545.25;4897868;29;20038;-66
2022/12/05 06:38:39;;;;;;;33.03;12.52;;;;;;;9.80;48.32;101540.97;4897917;29;20063;-67
2022/12/05 06:41:06;;;;;;;30.90;11.00;;;;;;;9.78;48.63;101548.25;4898345;29;20490;-67
2022/12/05 06:43:31;;;;;;;33.40;10.75;;;;;;;9.73;48.20;101550.41;4898035;29;20406;-65
2022/12/05 06:45:57;;;;;;;34.42;13.05;;;;;;;9.68;47.99;101547.19;4897716;29;20045;-65
2022/12/05 06:48:22;;;;;;;27.83;10.75;;;;;;;9.64;48.03;101543.00;4897679;29;20130;-64
2022/12/05 06:50:50;;;;;;;29.75;10.73;;;;;;;9.60;48.25;101548.69;4897573;29;20087;-64
2022/12/05 06:53:22;;;;;;;28.88;11.60;;;;;;;9.60;48.58;101549.53;4887689;29;20068;-62
2022/12/05 06:55:56;;;;;;;33.50;11.82;;;;;;;9.56;48.51;101557.84;4867508;29;20055;-63
2022/12/05 06:58:31;;;;;;;30.13;11.73;;;;;;;9.56;48.47;101561.41;4882187;29;20058;-62
2022/12/05 07:03:42;;;;;;;25.25;10.57;;;;;;;9.53;48.53;101560.75;4898531;29;20541;-62
2022/12/05 07:06:08;;;;;;;27.85;10.40;;;;;;;9.51;48.35;101560.00;4866573;29;20024;-62
2022/12/05 07:08:33;;;;;;;28.67;10.40;;;;;;;9.53;48.60;101566.94;4882039;29;20036;-62
2022/12/05 07:11:00;;;;;;;32.33;11.85;;;;;;;9.55;48.47;101567.69;4866421;29;20040;-62
2022/12/05 07:13:25;;;;;;;32.83;11.98;;;;;;;9.57;48.61;101573.81;4865867;29;20521;-62
2022/12/05 07:15:51;;;;;;;34.90;11.75;;;;;;;9.55;48.11;101573.03;4865803;29;20045;-62
2022/12/05 07:18:17;;;;;;;36.13;12.05;;;;;;;9.57;48.48;101576.50;4866018;29;20480;-62
2022/12/05 07:20:43;;;;;;;25.27;11.15;;;;;;;9.55;47.94;101578.38;4881577;29;20036;-62
2022/12/05 07:23:09;;;;;;;27.80;12.35;;;;;;;9.57;48.69;101581.84;4866103;29;20156;-62
2022/12/05 07:25:39;;;;;;;31.02;11.43;;;;;;;9.57;48.80;101580.97;4865703;29;20064;-62
2022/12/05 07:28:05;;;;;;;27.63;10.77;;;;;;;9.59;48.52;101589.75;4881242;29;20043;-62
2022/12/05 07:30:30;;;;;;;30.08;11.38;;;;;;;9.56;48.42;101582.78;4881370;29;20033;-63
2022/12/05 07:32:55;;;;;;;27.20;10.85;;;;;;;9.57;48.81;101592.53;4865607;29;20402;-62
2022/12/05 07:35:21;;;;;;;33.92;12.63;;;;;;;9.58;48.02;101591.56;4898783;29;20040;-62
2022/12/05 07:37:46;;;;;;;30.95;12.27;;;;;;;9.55;48.77;101594.44;4866028;29;20054;-62
2022/12/05 07:40:12;;;;;;;33.40;11.00;;;;;;;9.56;48.14;101596.16;4865995;29;20051;-62
2022/12/05 07:42:37;;;;;;;27.58;11.43;;;;;;;9.55;48.32;101594.44;4866067;29;20028;-63
2022/12/05 07:45:03;;;;;;;29.13;11.95;;;;;;;9.54;48.82;101592.75;4865826;29;20032;-63
2022/12/05 07:47:29;;;;;;;28.52;11.45;;;;;;;9.56;48.93;101606.88;4881619;29;20036;-62
2022/12/05 07:49:55;;;;;;;27.30;10.82;;;;;;;9.54;49.17;101597.22;4881433;29;20043;-62
2022/12/05 07:52:20;;;;;;;28.52;11.82;;;;;;;9.53;48.75;101603.53;4866018;29;20041;-62
2022/12/05 07:54:46;;;;;;;30.42;11.85;;;;;;;9.51;48.41;101598.28;4865601;29;20490;-63
2022/12/05 07:57:11;;;;;;;32.42;11.77;;;;;;;9.52;49.26;101599.16;4880972;29;20047;-62
2022/12/05 07:59:37;;;;;;;33.10;12.82;;;;;;;9.56;48.53;101609.53;4881410;29;20402;-63
2022/12/05 08:02:02;;;;;;;31.75;12.77;;;;;;;9.56;48.61;101609.53;4897813;29;20048;-63
2022/12/05 08:04:28;;;;;;;38.30;13.07;;;;;;;9.59;48.91;101611.16;4881048;29;20130;-63
2022/12/05 08:06:53;;;;;;;28.70;11.15;;;;;;;9.58;48.71;101604.06;4897822;29;20041;-63
2022/12/05 08:09:18;;;;;;;32.50;12.50;;;;;;;9.65;49.13;101621.44;4897731;29;20033;-63
2022/12/05 08:11:44;;;;;;;38.78;13.40;;;;;;;9.64;48.90;101619.72;4897552;29;20044;-62
2022/12/05 08:14:09;;;;;;;25.40;11.55;;;;;;;9.71;49.15;101619.22;4881271;29;20510;-62
2022/12/05 08:16:35;;;;;;;30.73;11.65;;;;;;;9.73;48.66;101625.31;4877622;29;20041;-62
2022/12/05 08:19:05;;;;;;;32.58;11.20;;;;;;;9.75;48.78;101626.03;4877718;29;20048;-62
2022/12/05 08:21:31;;;;;;;30.80;10.93;;;;;;;9.77;48.98;101629.47;4877877;29;20040;-62
2022/12/05 08:23:57;;;;;;;29.42;11.27;;;;;;;9.81;48.79;101632.81;4879097;29;20025;-62
2022/12/05 08:26:27;;;;;;;31.52;11.60;;;;;;;9.84;48.67;101637.94;4878179;29;20037;-63
2022/12/05 08:28:55;;;;;;;27.27;11.32;;;;;;;9.87;48.90;101633.25;4862156;29;20562;-62
2022/12/05 08:31:23;;;;;;;32.60;12.20;;;;;;;9.89;48.66;101635.81;4877704;29;20093;-62
2022/12/05 08:33:48;;;;;;;32.85;13.10;;;;;;;9.95;48.37;101640.75;4862100;29;20041;-61
2022/12/05 08:36:15;;;;;;;29.25;11.80;;;;;;;9.97;49.13;101637.97;4878999;29;20029;-61
2022/12/05 08:38:41;;;;;;;33.35;12.35;;;;;;;9.99;48.76;101652.97;4881357;29;20085;-62
2022/12/05 08:41:08;;;;;;;34.97;13.20;;;;;;;10.02;48.09;101651.91;4881662;29;20436;-62
2022/12/05 08:43:34;;;;;;;32.30;13.38;;;;;;;10.05;48.26;101651.69;4881158;29;20033;-61
2022/12/05 08:46:00;;;;;;;34.95;14.18;;;;;;;10.09;48.83;101655.84;4881191;29;20543;-61
2022/12/05 08:48:27;;;;;;;46.25;14.20;;;;;;;10.10;48.90;101650.41;4881282;29;20040;-62
2022/12/05 08:50:52;;;;;;;34.67;12.35;;;;;;;10.18;48.92;101657.94;4881033;29;20164;-62
2022/12/05 08:53:18;;;;;;;36.30;11.68;;;;;;;10.23;48.78;101658.47;4882627;29;20116;-62
2022/12/05 08:55:44;;;;;;;33.60;12.00;;;;;;;10.24;48.38;101654.84;4882173;29;20044;-62
2022/12/05 08:58:10;;;;;;;29.60;12.02;;;;;;;10.31;47.79;101659.63;4882098;29;20033;-62
2022/12/05 09:00:35;;;;;;;27.55;12.88;;;;;;;10.34;48.47;101662.09;4880934;29;20112;-62
2022/12/05 09:03:01;;;;;;;23.08;11.55;;;;;;;10.35;48.51;101665.66;4880968;29;20044;-62
2022/12/05 09:05:26;;;;;;;31.02;11.20;;;;;;;10.39;48.41;101659.09;4881055;29;20033;-62
2022/12/05 09:07:52;;;;;;;27.15;12.82;;;;;;;10.40;48.86;101655.47;4881974;29;20123;-62
2022/12/05 09:10:17;;;;;;;32.15;12.45;;;;;;;10.44;48.94;101670.38;4880646;29;20041;-62
2022/12/05 09:12:43;;;;;;;31.65;12.80;;;;;;;10.45;48.28;101670.25;4880420;29;20041;-62
2022/12/05 09:15:10;;;;;;;30.27;12.15;;;;;;;10.46;48.20;101674.66;4880476;29;20546;-62
2022/12/05 09:17:35;;;;;;;27.45;11.70;;;;;;;10.48;48.50;101666.50;4865624;29;20052;-62
2022/12/05 09:20:01;;;;;;;32.03;11.70;;;;;;;10.49;48.56;101674.44;4881860;29;20040;-62
2022/12/05 09:22:26;;;;;;;29.58;12.27;;;;;;;10.48;48.06;101671.84;4865063;29;20053;-62
2022/12/05 09:24:52;;;;;;;30.58;11.77;;;;;;;10.51;48.73;101672.50;4881688;29;20040;-62
2022/12/05 09:27:17;;;;;;;33.05;12.45;;;;;;;10.50;48.01;101672.59;4881682;29;20474;-62
2022/12/05 09:29:42;;;;;;;24.20;11.20;;;;;;;10.51;48.18;101674.31;4864884;29;20088;-62
2022/12/05 09:32:09;;;;;;;30.45;12.68;;;;;;;10.55;48.26;101688.34;4865354;29;20043;-62
2022/12/05 09:34:35;;;;;;;29.85;12.50;;;;;;;10.53;48.73;101675.06;4880400;29;20131;-62
2022/12/05 09:37:01;;;;;;;32.65;12.57;;;;;;;10.56;48.47;101685.56;4864781;29;20073;-62
2022/12/05 09:39:27;;;;;;;25.92;10.98;;;;;;;10.55;48.48;101689.22;4880198;29;20068;-62
2022/12/05 09:42:04;;;;;;;31.80;12.93;;;;;;;10.56;48.28;101682.00;4864628;29;20402;-62
2022/12/05 09:44:53;;;;;;;21.45;11.00;;;;;;;10.53;48.00;101681.28;4881850;29;20045;-62
2022/12/05 09:47:28;;;;;;;33.72;14.32;;;;;;;10.55;48.32;101688.34;4880974;29;20052;-63
2022/12/05 09:50:18;;;;;;;28.17;11.90;;;;;;;10.56;48.56;101692.72;4879997;29;20041;-63
2022/12/05 09:52:58;;;;;;;25.67;12.00;;;;;;;10.55;48.37;101691.91;4879818;29;20434;-63
2022/12/05 09:55:24;;;;;;;30.33;11.68;;;;;;;10.55;49.24;101688.34;4879666;29;20045;-64
2022/12/05 09:57:57;;;;;;;23.15;9.95;;;;;;;10.57;48.69;101694.44;4881044;29;20048;-63
2022/12/05 10:00:22;;;;;;;29.13;11.35;;;;;;;10.55;48.08;101694.56;4879817;29;20067;-63
2022/12/05 10:03:02;;;;;;;25.75;11.13;;;;;;;10.59;48.23;101696.06;4879806;29;20469;-63
2022/12/05 10:05:36;;;;;;;22.02;9.73;;;;;;;10.58;48.83;101686.28;4880160;29;20037;-64
2022/12/05 10:08:13;;;;;;;29.05;9.80;;;;;;;10.58;48.33;101686.28;4879733;29;20538;-64
2022/12/05 10:11:13;;;;;;;24.20;10.80;;;;;;;10.62;47.54;101681.59;4880907;29;20550;-64
2022/12/05 10:13:45;;;;;;;22.27;10.05;;;;;;;10.61;48.31;101683.41;4880788;29;20060;-64
2022/12/05 10:16:14;;;;;;;21.50;10.43;;;;;;;10.60;48.22;101684.38;4879378;29;20051;-64
2022/12/05 10:18:43;;;;;;;24.60;10.43;;;;;;;10.64;48.24;101688.53;4879521;29;20044;-64
2022/12/05 10:21:22;;;;;;;29.80;10.07;;;;;;;10.67;47.85;101687.47;4879502;29;20538;-64
2022/12/05 10:23:51;;;;;;;22.55;11.05;;;;;;;10.68;48.06;101689.19;4863936;29;20025;-64
2022/12/05 10:26:17;;;;;;;33.40;12.00;;;;;;;10.67;47.98;101691.00;4881056;29;20483;-64
2022/12/05 10:28:57;;;;;;;28.77;11.80;;;;;;;10.71;48.26;101694.34;4878725;29;20048;-64
2022/12/05 10:31:30;;;;;;;26.50;10.93;;;;;;;10.67;47.96;101688.34;4878664;29;20056;-64
2022/12/05 10:34:30;;;;;;;25.50;11.38;;;;;;;10.73;48.49;101695.94;4862997;29;20116;-65
2022/12/05 10:36:59;;;;;;;20.95;9.07;;;;;;;10.75;48.45;101691.31;4868549;29;20041;-65
2022/12/05 10:39:24;;;;;;;22.10;10.85;;;;;;;10.78;48.84;101695.59;4879565;29;20041;-64
2022/12/05 10:41:50;;;;;;;25.13;9.70;;;;;;;10.76;48.11;101698.41;4878468;29;20539;-64
2022/12/05 10:44:15;;;;;;;18.48;9.98;;;;;;;10.79;48.07;101698.19;4880101;29;20033;-64
2022/12/05 10:46:41;;;;;;;19.67;8.75;;;;;;;10.79;48.10;101695.50;4878891;29;20064;-65
2022/12/05 10:49:12;;;;;;;18.42;9.20;;;;;;;10.78;48.53;101701.81;4879969;29;20044;-65
2022/12/05 10:51:38;;;;;;;29.70;10.63;;;;;;;10.76;47.57;101702.91;4848090;29;20491;-66
2022/12/05 10:54:17;;;;;;;18.45;9.20;;;;;;;10.77;48.35;101699.28;4879136;29;20483;-65
2022/12/05 10:56:42;;;;;;;22.42;10.40;;;;;;;10.77;48.46;101700.13;4878982;29;20105;-65
2022/12/05 10:59:13;;;;;;;24.63;11.25;;;;;;;10.75;48.02;101693.16;4879650;29;20029;-64
2022/12/05 11:01:45;;;;;;;27.98;11.27;;;;;;;10.73;47.89;101693.25;4862922;29;20044;-65
2022/12/05 11:04:43;;;;;;;21.67;10.32;;;;;;;10.74;48.27;101689.63;4863383;29;20056;-64
2022/12/05 11:07:30;;;;;;;24.70;10.70;;;;;;;10.73;48.18;101693.25;4878231;29;20422;-64
2022/12/05 11:09:59;;;;;;;22.67;10.63;;;;;;;10.73;48.47;101687.91;4878581;29;20037;-66
2022/12/05 11:12:29;;;;;;;26.00;11.13;;;;;;;10.74;47.95;101691.44;4862883;29;20037;-63
2022/12/05 11:14:54;;;;;;;22.30;10.23;;;;;;;10.73;48.15;101693.25;4881100;29;20144;-63
2022/12/05 11:17:24;;;;;;;26.23;10.63;;;;;;;10.72;48.04;101686.19;4898706;29;20583;-62
2022/12/05 11:19:52;;;;;;;28.05;12.45;;;;;;;10.73;47.94;101684.34;4866048;29;20490;-62
2022/12/05 11:22:18;;;;;;;30.23;11.55;;;;;;;10.75;48.24;101691.31;4881472;29;20565;-62
2022/12/05 11:24:43;;;;;;;17.27;9.25;;;;;;;10.76;47.67;101693.03;4881522;29;20153;-62
2022/12/05 11:27:15;;;;;;;20.48;8.88;;;;;;;10.77;48.05;101694.78;4881369;29;20119;-63
2022/12/05 11:29:40;;;;;;;14.68;8.63;;;;;;;10.77;48.43;101692.09;4898178;29;20393;-63
2022/12/05 11:32:20;;;;;;;20.90;9.20;;;;;;;10.82;48.01;101694.44;4881736;29;20136;-63
2022/12/05 11:34:56;;;;;;;21.85;10.77;;;;;;;10.81;48.48;101688.22;4865936;29;20036;-63
2022/12/05 11:37:26;;;;;;;18.38;8.68;;;;;;;10.81;48.49;101693.56;4898108;29;20069;-63
2022/12/05 11:39:51;;;;;;;16.55;8.10;;;;;;;10.82;47.48;101691.75;4881372;29;20040;-64
2022/12/05 11:42:34;;;;;;;19.40;9.60;;;;;;;10.82;48.04;101684.56;4865758;29;20525;-63
2022/12/05 11:45:19;;;;;;;15.30;7.00;;;;;;;10.80;48.31;101678.47;4881446;29;20431;-63